createdAt,value
2019-05-02T00:01:54.396Z,9.13
2019-05-02T00:04:24.100Z,8.63
2019-05-02T00:07:14.280Z,9.58
2019-05-02T00:09:47.514Z,8.38
2019-05-02T00:12:15.514Z,8.13
2019-05-02T00:14:45.115Z,8.80
2019-05-02T00:17:14.524Z,9.05
2019-05-02T00:19:45.193Z,8.20
2019-05-02T00:22:17.286Z,8.50
2019-05-02T00:24:46.268Z,8.05
2019-05-02T00:27:15.755Z,7.72
2019-05-02T00:29:45.197Z,8.13
2019-05-02T00:32:18.342Z,8.63
2019-05-02T00:34:45.775Z,7.83
2019-05-02T00:37:18.904Z,8.43
2019-05-02T00:39:49.293Z,8.43
2019-05-02T00:42:17.806Z,7.83
2019-05-02T00:44:48.678Z,8.30
2019-05-02T00:47:29.006Z,7.53
2019-05-02T00:49:58.471Z,7.75
2019-05-02T00:52:27.876Z,8.25
2019-05-02T00:54:58.690Z,7.58
2019-05-02T00:57:28.295Z,8.03
2019-05-02T00:59:57.721Z,7.55
2019-05-02T01:02:45.072Z,7.25
2019-05-02T01:05:14.541Z,7.83
2019-05-02T01:07:43.949Z,6.90
2019-05-02T01:10:17.354Z,7.50
2019-05-02T01:12:46.233Z,6.80
2019-05-02T01:15:15.699Z,7.65
2019-05-02T01:17:45.131Z,7.30
2019-05-02T01:20:14.601Z,8.00
2019-05-02T01:22:47.251Z,7.53
2019-05-02T01:25:16.969Z,7.00
2019-05-02T01:28:03.606Z,6.97
2019-05-02T01:30:45.704Z,6.58
2019-05-02T01:33:29.860Z,6.92
2019-05-02T01:36:06.410Z,6.92
2019-05-02T01:38:40.301Z,6.87
2019-05-02T01:41:09.970Z,7.03
2019-05-02T01:43:39.430Z,6.50
2019-05-02T01:46:08.879Z,5.97
2019-05-02T01:48:40.212Z,6.87
2019-05-02T01:51:11.835Z,6.80
2019-05-02T01:53:40.607Z,6.60
2019-05-02T01:56:10.037Z,6.65
2019-05-02T01:58:39.473Z,6.20
2019-05-02T02:01:08.937Z,6.17
2019-05-02T02:03:40.406Z,6.35
2019-05-02T02:06:10.180Z,6.17
2019-05-02T02:08:39.663Z,6.22
2019-05-02T02:11:09.092Z,6.28
2019-05-02T02:13:38.523Z,6.70
2019-05-02T02:16:07.970Z,6.42
2019-05-02T02:18:42.330Z,6.00
2019-05-02T02:21:36.535Z,6.50
2019-05-02T02:24:16.464Z,6.22
2019-05-02T02:26:48.230Z,5.95
2019-05-02T02:29:17.067Z,5.83
2019-05-02T02:31:48.601Z,5.92
2019-05-02T02:34:21.138Z,6.03
2019-05-02T02:36:48.830Z,5.87
2019-05-02T02:39:18.262Z,6.10
2019-05-02T02:41:52.301Z,5.65
2019-05-02T02:44:41.894Z,5.55
2019-05-02T02:47:18.713Z,5.53
2019-05-02T02:49:42.546Z,5.62
2019-05-02T02:52:11.976Z,5.87
2019-05-02T02:54:43.179Z,5.42
2019-05-02T02:57:20.572Z,5.37
2019-05-02T02:59:43.755Z,5.83
2019-05-02T03:02:13.186Z,5.45
2019-05-02T03:04:44.522Z,5.85
2019-05-02T03:07:24.654Z,5.70
2019-05-02T03:09:44.923Z,5.12
2019-05-02T03:12:36.338Z,5.47
2019-05-02T03:15:04.414Z,5.25
2019-05-02T03:17:33.838Z,5.83
2019-05-02T03:20:03.862Z,5.40
2019-05-02T03:22:35.002Z,5.80
2019-05-02T03:25:04.761Z,5.33
2019-05-02T03:27:37.166Z,5.58
2019-05-02T03:30:05.405Z,5.12
2019-05-02T03:32:36.172Z,5.12
2019-05-02T03:35:05.978Z,4.87
2019-05-02T03:37:35.482Z,5.03
2019-05-02T03:40:04.917Z,5.60
2019-05-02T03:42:43.877Z,5.55
2019-05-02T03:45:05.621Z,5.30
2019-05-02T03:47:36.926Z,5.78
2019-05-02T03:50:09.333Z,5.12
2019-05-02T03:52:43.424Z,5.25
2019-05-02T03:55:09.045Z,5.30
2019-05-02T03:57:41.929Z,5.28
2019-05-02T04:00:13.875Z,5.33
2019-05-02T04:02:41.025Z,4.92
2019-05-02T04:05:10.830Z,5.53
2019-05-02T04:07:42.363Z,4.87
2019-05-02T04:10:13.376Z,5.10
2019-05-02T04:12:43.314Z,5.08
2019-05-02T04:15:12.917Z,4.40
2019-05-02T04:17:42.495Z,4.80
2019-05-02T04:20:12.773Z,4.60
2019-05-02T04:22:42.707Z,5.45
2019-05-02T04:25:13.455Z,5.62
2019-05-02T04:27:42.894Z,5.30
2019-05-02T04:30:14.225Z,4.90
2019-05-02T04:32:49.848Z,5.30
2019-05-02T04:35:14.603Z,5.67
2019-05-02T04:37:44.038Z,5.17
2019-05-02T04:40:13.482Z,5.00
2019-05-02T04:42:42.991Z,4.35
2019-05-02T04:45:24.816Z,4.83
2019-05-02T04:47:54.774Z,4.65
2019-05-02T04:50:24.142Z,3.98
2019-05-02T04:52:51.406Z,4.65
2019-05-02T04:55:25.935Z,4.60
2019-05-02T04:57:51.083Z,4.70
2019-05-02T05:00:23.924Z,4.55
2019-05-02T05:02:53.423Z,4.40
2019-05-02T05:05:25.559Z,4.40
2019-05-02T05:07:54.034Z,4.92
2019-05-02T05:10:23.453Z,4.58
2019-05-02T05:12:52.900Z,4.40
2019-05-02T05:15:35.834Z,5.20
2019-05-02T05:17:53.511Z,4.97
2019-05-02T05:20:22.937Z,4.42
2019-05-02T05:22:52.602Z,4.60
2019-05-02T05:25:27.967Z,4.78
2019-05-02T05:28:03.420Z,5.35
2019-05-02T05:30:28.497Z,5.30
2019-05-02T05:32:58.379Z,5.15
2019-05-02T05:35:28.209Z,4.78
2019-05-02T05:37:57.590Z,5.40
2019-05-02T05:40:30.376Z,5.78
2019-05-02T05:43:02.516Z,5.90
2019-05-02T05:45:29.326Z,5.95
2019-05-02T05:48:01.094Z,5.78
2019-05-02T05:50:32.156Z,6.00
2019-05-02T05:53:01.356Z,6.12
2019-05-02T05:55:31.698Z,5.85
2019-05-02T05:58:12.260Z,6.53
2019-05-02T06:00:33.010Z,6.62
2019-05-02T06:03:13.180Z,6.55
2019-05-02T06:05:38.538Z,5.30
2019-05-02T06:08:08.029Z,6.17
2019-05-02T06:10:38.964Z,6.30
2019-05-02T06:13:11.006Z,6.05
2019-05-02T06:15:38.929Z,6.08
2019-05-02T06:18:09.131Z,6.10
2019-05-02T06:20:38.596Z,6.42
2019-05-02T06:23:08.331Z,6.22
2019-05-02T06:25:37.754Z,6.00
2019-05-02T06:28:07.238Z,6.40
2019-05-02T06:30:36.653Z,5.92
2019-05-02T06:33:06.068Z,6.25
2019-05-02T06:35:35.500Z,5.87
2019-05-02T06:38:04.988Z,5.60
2019-05-02T06:40:34.434Z,6.12
2019-05-02T06:43:09.030Z,5.28
2019-05-02T06:45:37.643Z,5.90
2019-05-02T06:48:06.289Z,5.75
2019-05-02T06:50:39.015Z,6.33
2019-05-02T06:53:09.848Z,6.03
2019-05-02T06:55:38.693Z,5.08
2019-05-02T06:58:08.834Z,5.55
2019-05-02T07:00:56.037Z,6.50
2019-05-02T07:03:10.102Z,5.85
2019-05-02T07:05:40.597Z,5.80
2019-05-02T07:08:11.928Z,5.60
2019-05-02T07:10:44.784Z,5.58
2019-05-02T07:13:15.033Z,6.00
2019-05-02T07:16:05.098Z,6.00
2019-05-02T07:18:42.008Z,6.30
2019-05-02T07:21:12.122Z,5.95
2019-05-02T07:23:41.462Z,6.40
2019-05-02T07:26:15.541Z,6.47
2019-05-02T07:28:45.503Z,7.30
2019-05-02T07:31:13.920Z,6.53
2019-05-02T07:33:43.334Z,7.08
2019-05-02T07:36:12.754Z,6.87
2019-05-02T07:38:42.211Z,6.80
2019-05-02T07:41:12.045Z,7.10
2019-05-02T07:43:41.461Z,6.78
2019-05-02T07:46:10.892Z,6.97
2019-05-02T07:48:40.320Z,7.03
2019-05-02T07:51:09.759Z,7.00
2019-05-02T07:53:39.189Z,6.85
2019-05-02T07:56:12.521Z,7.03
2019-05-02T07:58:46.811Z,6.30
2019-05-02T08:01:13.546Z,6.15
2019-05-02T08:03:42.085Z,6.08
2019-05-02T08:06:11.505Z,6.67
2019-05-02T08:08:40.925Z,6.40
2019-05-02T08:11:10.382Z,6.50
2019-05-02T08:13:39.841Z,6.37
2019-05-02T08:16:09.258Z,6.08
2019-05-02T08:18:38.700Z,6.00
2019-05-02T08:21:08.124Z,6.00
2019-05-02T08:23:37.557Z,5.90
2019-05-02T08:26:06.991Z,5.35
2019-05-02T08:28:42.575Z,5.90
2019-05-02T08:31:13.496Z,6.10
2019-05-02T08:33:43.161Z,5.65
2019-05-02T08:36:12.583Z,5.55
2019-05-02T08:38:42.017Z,6.10
2019-05-02T08:41:11.445Z,5.53
2019-05-02T08:43:44.944Z,5.30
2019-05-02T08:46:14.460Z,5.60
2019-05-02T08:48:43.761Z,5.28
2019-05-02T08:51:13.221Z,5.20
2019-05-02T08:53:42.657Z,5.10
2019-05-02T08:56:16.065Z,5.12
2019-05-02T08:58:44.945Z,5.15
2019-05-02T09:01:15.472Z,4.72
2019-05-02T09:04:00.278Z,5.10
2019-05-02T09:06:17.198Z,4.80
2019-05-02T09:08:51.470Z,4.60
2019-05-02T09:11:18.357Z,4.55
2019-05-02T09:13:47.793Z,5.10
2019-05-02T09:16:23.754Z,5.42
2019-05-02T09:18:51.833Z,4.33
2019-05-02T09:21:19.455Z,5.05
2019-05-02T09:23:48.901Z,4.42
2019-05-02T09:26:26.369Z,4.75
2019-05-02T09:28:51.557Z,4.62
2019-05-02T09:31:22.525Z,4.40
2019-05-02T09:33:52.419Z,4.72
2019-05-02T09:36:22.885Z,4.83
2019-05-02T09:38:53.974Z,4.10
2019-05-02T09:41:26.967Z,4.47
2019-05-02T09:43:54.583Z,4.12
2019-05-02T09:46:24.009Z,4.30
2019-05-02T09:48:56.994Z,4.53
2019-05-02T09:51:24.727Z,4.72
2019-05-02T09:53:57.154Z,4.65
2019-05-02T09:56:25.248Z,4.20
2019-05-02T09:59:02.266Z,4.17
2019-05-02T10:01:35.581Z,4.42
2019-05-02T10:04:05.349Z,4.42
2019-05-02T10:06:34.770Z,3.85
2019-05-02T10:09:05.557Z,4.62
2019-05-02T10:11:34.987Z,4.58
2019-05-02T10:14:04.450Z,4.47
2019-05-02T10:16:33.851Z,4.35
2019-05-02T10:19:09.566Z,4.15
2019-05-02T10:21:34.484Z,4.42
2019-05-02T10:24:03.933Z,4.17
2019-05-02T10:26:33.308Z,4.17
2019-05-02T10:29:02.737Z,4.03
2019-05-02T10:31:37.314Z,4.00
2019-05-02T10:34:03.343Z,4.03
2019-05-02T10:36:32.803Z,4.47
2019-05-02T10:39:02.306Z,3.92
2019-05-02T10:41:39.609Z,4.12
2019-05-02T10:44:05.677Z,4.22
2019-05-02T10:47:07.938Z,4.15
2019-05-02T10:49:54.162Z,3.60
2019-05-02T10:52:29.768Z,4.03
2019-05-02T10:54:55.645Z,4.00
2019-05-02T10:57:26.902Z,3.95
2019-05-02T10:59:56.640Z,4.15
2019-05-02T11:02:52.465Z,4.20
2019-05-02T11:05:26.465Z,4.60
2019-05-02T11:08:04.721Z,4.40
2019-05-02T11:10:29.701Z,4.00
2019-05-02T11:13:12.507Z,4.12
2019-05-02T11:16:18.732Z,3.75
2019-05-02T11:19:02.525Z,4.20
2019-05-02T11:21:32.375Z,4.40
2019-05-02T11:24:02.554Z,4.37
2019-05-02T11:26:32.534Z,4.70
2019-05-02T11:29:02.934Z,4.33
2019-05-02T11:31:32.709Z,4.45
2019-05-02T11:34:02.152Z,4.22
2019-05-02T11:36:32.771Z,4.15
2019-05-02T11:39:12.919Z,4.33
2019-05-02T11:41:33.620Z,4.22
2019-05-02T11:44:03.155Z,4.33
2019-05-02T11:46:33.107Z,4.37
2019-05-02T11:49:02.683Z,4.10
2019-05-02T11:51:32.718Z,4.22
2019-05-02T11:54:05.062Z,4.05
2019-05-02T11:56:33.406Z,4.10
2019-05-02T11:59:03.082Z,4.03
2019-05-02T12:01:37.211Z,4.25
2019-05-02T12:04:07.714Z,3.92
2019-05-02T12:06:34.828Z,3.92
2019-05-02T12:09:06.129Z,4.35
2019-05-02T12:11:35.583Z,3.92
2019-05-02T12:14:05.023Z,4.83
2019-05-02T12:16:34.444Z,4.17
2019-05-02T12:19:11.777Z,4.72
2019-05-02T12:21:35.104Z,6.30
2019-05-02T12:24:04.532Z,5.42
2019-05-02T12:26:34.013Z,5.37
2019-05-02T12:29:03.419Z,4.58
2019-05-02T12:31:32.937Z,4.90
2019-05-02T12:34:05.107Z,5.20
2019-05-02T12:36:34.529Z,5.60
2019-05-02T12:39:05.864Z,4.95
2019-05-02T12:41:35.293Z,5.33
2019-05-02T12:44:04.834Z,5.12
2019-05-02T12:46:34.242Z,5.33
2019-05-02T12:49:03.671Z,5.10
2019-05-02T12:51:33.100Z,5.37
2019-05-02T12:54:02.559Z,5.30
2019-05-02T12:56:32.490Z,5.08
2019-05-02T12:59:02.531Z,4.90
2019-05-02T13:01:33.051Z,5.62
2019-05-02T13:04:12.448Z,5.62
2019-05-02T13:06:42.301Z,5.10
2019-05-02T13:09:12.630Z,5.35
2019-05-02T13:12:10.075Z,5.42
2019-05-02T13:14:39.576Z,5.00
2019-05-02T13:17:09.019Z,5.05
2019-05-02T13:19:41.416Z,5.03
2019-05-02T13:22:26.853Z,4.62
2019-05-02T13:24:59.532Z,4.78
2019-05-02T13:27:33.712Z,4.87
2019-05-02T13:30:00.125Z,5.03
2019-05-02T13:32:40.313Z,4.55
2019-05-02T13:35:34.242Z,4.67
2019-05-02T13:38:05.000Z,4.67
2019-05-02T13:40:37.912Z,4.35
2019-05-02T13:43:07.341Z,4.92
2019-05-02T13:46:02.363Z,4.90
2019-05-02T13:48:32.324Z,4.95
2019-05-02T13:51:03.781Z,4.95
2019-05-02T13:53:33.941Z,4.55
2019-05-02T13:56:21.988Z,4.92
2019-05-02T13:58:51.937Z,5.08
2019-05-02T14:01:22.408Z,4.87
2019-05-02T14:03:55.465Z,4.47
2019-05-02T14:06:29.703Z,4.92
2019-05-02T14:09:16.432Z,5.20
2019-05-02T14:11:44.100Z,4.72
2019-05-02T14:14:13.539Z,4.67
2019-05-02T14:16:42.978Z,4.80
2019-05-02T14:19:12.755Z,4.72
2019-05-02T14:21:42.284Z,4.90
2019-05-02T14:24:11.935Z,4.97
2019-05-02T14:26:43.374Z,5.50
2019-05-02T14:29:16.190Z,4.78
2019-05-02T14:31:44.089Z,4.95
2019-05-02T14:34:32.700Z,5.00
2019-05-02T14:37:02.106Z,4.87
2019-05-02T14:39:32.467Z,5.10
2019-05-02T14:42:02.191Z,4.92
2019-05-02T14:44:58.390Z,4.72
2019-05-02T14:47:03.034Z,4.85
2019-05-02T14:49:32.450Z,4.72
2019-05-02T14:52:06.758Z,4.60
2019-05-02T14:54:33.039Z,5.45
2019-05-02T14:57:07.734Z,5.33
2019-05-02T14:59:37.152Z,5.08
2019-05-02T15:02:09.474Z,5.37
2019-05-02T15:04:44.600Z,5.55
2019-05-02T15:07:10.281Z,5.22
2019-05-02T15:09:41.746Z,5.15
2019-05-02T15:12:15.832Z,5.72
2019-05-02T15:14:43.221Z,4.53
2019-05-02T15:17:12.685Z,4.92
2019-05-02T15:19:42.742Z,4.92
2019-05-02T15:22:12.503Z,5.33
2019-05-02T15:24:42.424Z,5.92
2019-05-02T15:27:17.496Z,6.12
2019-05-02T15:29:44.038Z,5.75
2019-05-02T15:32:25.111Z,5.28
2019-05-02T15:35:24.921Z,5.87
2019-05-02T15:37:56.673Z,5.53
2019-05-02T15:42:56.625Z,5.53
2019-05-02T15:45:26.015Z,4.95
2019-05-02T15:47:55.445Z,5.45
2019-05-02T15:50:25.951Z,5.80
2019-05-02T15:53:03.138Z,5.78
2019-05-02T15:55:38.880Z,5.22
2019-05-02T15:58:02.626Z,5.37
2019-05-02T16:00:35.404Z,5.22
2019-05-02T16:03:04.824Z,4.97
2019-05-02T16:05:36.553Z,5.33
2019-05-02T16:08:08.930Z,5.58
2019-05-02T16:10:38.424Z,5.03
2019-05-02T16:13:12.806Z,5.30
2019-05-02T16:15:39.857Z,5.00
2019-05-02T16:18:09.291Z,5.17
2019-05-02T16:21:04.207Z,5.17
2019-05-02T16:23:29.455Z,5.45
2019-05-02T16:25:57.010Z,4.50
2019-05-02T16:28:24.441Z,5.22
2019-05-02T16:30:56.177Z,5.65
2019-05-02T16:33:25.646Z,5.80
2019-05-02T16:35:55.116Z,5.50
2019-05-02T16:38:26.851Z,5.28
2019-05-02T16:40:55.689Z,4.90
2019-05-02T16:43:26.801Z,5.08
2019-05-02T16:45:56.251Z,4.67
2019-05-02T16:48:30.558Z,4.97
2019-05-02T16:50:56.851Z,4.78
2019-05-02T16:53:26.400Z,5.25
2019-05-02T16:55:58.480Z,5.12
2019-05-02T16:58:27.215Z,5.10
2019-05-02T17:00:56.833Z,4.95
2019-05-02T17:03:26.771Z,5.30
2019-05-02T17:05:56.222Z,5.20
2019-05-02T17:08:57.422Z,5.28
2019-05-02T17:11:34.159Z,5.42
2019-05-02T17:14:02.409Z,4.47
2019-05-02T17:16:31.877Z,4.70
2019-05-02T17:19:01.721Z,4.60
2019-05-02T17:21:33.718Z,5.15
2019-05-02T17:24:02.634Z,5.90
2019-05-02T17:26:32.123Z,4.72
2019-05-02T17:29:02.535Z,4.78
2019-05-02T17:31:32.283Z,4.80
2019-05-02T17:34:02.762Z,4.85
2019-05-02T17:36:32.594Z,5.30
2019-05-02T17:39:06.789Z,4.92
2019-05-02T17:41:37.091Z,4.78
2019-05-02T17:44:04.492Z,4.80
2019-05-02T17:46:33.955Z,5.40
2019-05-02T17:49:03.374Z,4.45
2019-05-02T17:51:51.960Z,4.80
2019-05-02T17:54:22.802Z,4.97
2019-05-02T17:56:57.515Z,4.65
2019-05-02T17:59:28.161Z,4.97
2019-05-02T18:01:55.142Z,4.87
2019-05-02T18:04:24.573Z,4.53
2019-05-02T18:06:55.178Z,4.62
2019-05-02T18:09:26.283Z,4.40
2019-05-02T18:11:55.995Z,4.95
2019-05-02T18:14:25.447Z,4.60
2019-05-02T18:16:55.708Z,4.20
2019-05-02T18:19:25.207Z,4.83
2019-05-02T18:21:58.050Z,4.97
2019-05-02T18:24:25.843Z,5.35
2019-05-02T18:26:55.308Z,4.72
2019-05-02T18:29:24.748Z,4.90
2019-05-02T18:31:55.830Z,5.00
2019-05-02T18:34:25.477Z,5.03
2019-05-02T18:36:57.602Z,4.47
2019-05-02T18:39:26.054Z,4.85
2019-05-02T18:41:55.544Z,5.10
2019-05-02T18:44:25.034Z,4.70
2019-05-02T18:46:54.464Z,4.95
2019-05-02T18:49:23.949Z,4.75
2019-05-02T18:51:57.239Z,4.80
2019-05-02T18:54:25.008Z,4.83
2019-05-02T18:56:55.339Z,4.53
2019-05-02T18:59:27.131Z,4.67
2019-05-02T19:01:59.356Z,4.58
2019-05-02T19:04:34.870Z,4.78
2019-05-02T19:06:58.632Z,4.45
2019-05-02T19:09:30.510Z,4.72
2019-05-02T19:12:05.364Z,4.97
2019-05-02T19:14:32.582Z,4.70
2019-05-02T19:17:03.574Z,4.55
2019-05-02T19:19:36.679Z,4.85
2019-05-02T19:22:07.506Z,4.40
2019-05-02T19:24:36.574Z,4.80
2019-05-02T19:27:06.512Z,4.62
2019-05-02T19:29:35.974Z,4.17
2019-05-02T19:32:08.277Z,4.40
2019-05-02T19:34:38.892Z,4.45
2019-05-02T19:37:08.371Z,3.95
2019-05-02T19:39:39.028Z,4.30
2019-05-02T19:42:08.938Z,5.15
2019-05-02T19:44:38.399Z,4.20
2019-05-02T19:47:08.392Z,4.00
2019-05-02T19:49:38.987Z,4.03
2019-05-02T19:52:08.449Z,4.20
2019-05-02T19:54:41.655Z,4.28
2019-05-02T19:57:11.990Z,4.30
2019-05-02T19:59:43.177Z,4.70
2019-05-02T20:02:12.678Z,4.70
2019-05-02T20:04:44.391Z,4.20
2019-05-02T20:07:13.359Z,4.12
2019-05-02T20:09:46.180Z,4.40
2019-05-02T20:12:15.708Z,5.10
2019-05-02T20:14:47.533Z,4.67
2019-05-02T20:17:20.221Z,4.97
2019-05-02T20:19:50.283Z,5.42
2019-05-02T20:22:19.715Z,4.67
2019-05-02T20:25:00.143Z,4.50
2019-05-02T20:27:28.515Z,4.58
2019-05-02T20:29:58.211Z,4.50
2019-05-02T20:32:27.636Z,4.90
2019-05-02T20:34:57.216Z,4.97
2019-05-02T20:37:26.637Z,4.78
2019-05-02T20:39:56.048Z,5.10
2019-05-02T20:42:25.476Z,4.47
2019-05-02T20:44:54.892Z,4.87
2019-05-02T20:47:24.905Z,4.53
2019-05-02T20:49:54.402Z,4.58
2019-05-02T20:52:23.825Z,4.97
2019-05-02T20:54:53.233Z,4.30
2019-05-02T20:57:22.950Z,3.95
2019-05-02T20:59:52.757Z,4.65
2019-05-02T21:02:22.228Z,4.70
2019-05-02T21:04:52.266Z,4.92
2019-05-02T21:07:38.074Z,4.95
2019-05-02T21:10:29.630Z,4.22
2019-05-02T21:12:59.076Z,4.53
2019-05-02T21:15:28.517Z,4.28
2019-05-02T21:17:57.937Z,4.67
2019-05-02T21:20:27.352Z,4.37
2019-05-02T21:22:56.812Z,4.30
2019-05-02T21:25:26.228Z,4.42
2019-05-02T21:27:55.668Z,4.40
2019-05-02T21:30:25.705Z,4.75
2019-05-02T21:32:55.124Z,4.33
2019-05-02T21:35:24.552Z,4.65
2019-05-02T21:37:53.986Z,4.33
2019-05-02T21:40:25.770Z,4.70
2019-05-02T21:42:54.556Z,4.37
2019-05-02T21:45:23.986Z,4.20
2019-05-02T21:47:53.442Z,4.08
2019-05-02T21:50:35.312Z,4.58
2019-05-02T21:53:23.570Z,4.65
2019-05-02T21:56:21.733Z,4.08
2019-05-02T21:59:12.241Z,4.15
2019-05-02T22:01:46.962Z,4.45
2019-05-02T22:04:16.403Z,4.00
2019-05-02T22:06:45.833Z,4.28
2019-05-02T22:09:15.297Z,4.45
2019-05-02T22:11:44.722Z,4.00
2019-05-02T22:14:14.165Z,4.00
2019-05-02T22:16:43.595Z,4.03
2019-05-02T22:19:13.025Z,4.10
2019-05-02T22:21:43.049Z,4.03
2019-05-02T22:24:14.363Z,4.85
2019-05-02T22:26:43.740Z,4.35
2019-05-02T22:29:13.165Z,4.08
2019-05-02T22:31:43.178Z,3.98
2019-05-02T22:34:12.936Z,4.40
2019-05-02T22:36:42.579Z,4.17
2019-05-02T22:39:33.922Z,3.95
2019-05-02T22:42:04.719Z,4.17
2019-05-02T22:44:34.222Z,4.05
2019-05-02T22:47:03.651Z,4.00
2019-05-02T22:49:33.062Z,3.92
2019-05-02T22:52:02.645Z,3.58
2019-05-02T22:54:33.819Z,3.90
2019-05-02T22:57:03.431Z,4.28
2019-05-02T22:59:32.871Z,3.87
2019-05-02T23:02:02.323Z,3.65
2019-05-02T23:04:32.554Z,3.92
2019-05-02T23:07:02.468Z,3.58
2019-05-02T23:09:32.028Z,3.80
2019-05-02T23:12:02.877Z,4.05
2019-05-02T23:14:32.646Z,3.92
2019-05-02T23:17:02.348Z,3.87
2019-05-02T23:19:31.944Z,3.90
2019-05-02T23:22:02.057Z,3.90
2019-05-02T23:24:52.011Z,3.45
2019-05-02T23:27:28.036Z,3.62
2019-05-02T23:29:57.473Z,4.05
2019-05-02T23:32:26.903Z,4.30
2019-05-02T23:34:56.335Z,3.92
2019-05-02T23:37:25.748Z,4.03
2019-05-02T23:39:55.165Z,3.80
2019-05-02T23:42:24.607Z,4.00
2019-05-02T23:44:54.056Z,3.60
2019-05-02T23:47:23.495Z,4.15
2019-05-02T23:49:52.915Z,3.67
2019-05-02T23:52:22.593Z,3.35
2019-05-02T23:54:52.573Z,3.37
2019-05-02T23:57:22.988Z,3.70
2019-05-02T23:59:52.487Z,3.77
